Time;durP1;ratioP1;P1;durP2;ratioP2;P2;SDS_P1;SDS_P2;PMS_P1;PMS_P2;Temp;Humidity;BMP_temperature;BMP_pressure;BME280_temperature;BME280_humidity;BME280_pressure;Samples;Min_cycle;Max_cycle;Signal;HPM_P1;HPM_P2
2022/06/14 00:01:28;;;;;;;14.30;10.25;;;;;;;;;;4994099;28;20041;-64
2022/06/14 00:03:54;;;;;;;12.75;11.10;;;;;;;;;;4994468;28;20037;-64
2022/06/14 00:06:24;;;;;;;11.27;10.18;;;;;;;;;;4994301;28;20467;-64
2022/06/14 00:08:51;;;;;;;12.23;10.75;;;;;;;;;;4993899;28;20498;-64
2022/06/14 00:11:17;;;;;;;;;;;;;;;;;;5014097;28;20438;-64
2022/06/14 00:13:43;;;;;;;12.38;11.13;;;;;;;;;;5008086;28;19909;-64
2022/06/14 00:16:09;;;;;;;16.05;11.40;;;;;;;;;;4994602;28;20033;-64
2022/06/14 00:18:35;;;;;;;14.02;11.98;;;;;;;;;;4994242;28;20061;-64
2022/06/14 00:21:02;;;;;;;16.25;11.73;;;;;;;;;;4994110;28;20108;-64
2022/06/14 00:23:28;;;;;;;12.73;11.45;;;;;;;;;;4993860;28;20475;-64
2022/06/14 00:25:55;;;;;;;12.55;11.35;;;;;;;;;;4993927;28;20062;-64
2022/06/14 00:28:22;;;;;;;16.30;11.75;;;;;;;;;;4993725;28;20500;-64
2022/06/14 00:30:51;;;;;;;13.88;11.88;;;;;;;;;;4993996;28;20061;-65
2022/06/14 00:33:17;;;;;;;17.38;12.70;;;;;;;;;;4993690;28;20034;-65
2022/06/14 00:35:43;;;;;;;13.80;12.45;;;;;;;;;;4992495;28;20479;-65
2022/06/14 00:38:11;;;;;;;14.57;13.05;;;;;;;;;;4993679;28;20045;-65
2022/06/14 00:40:37;;;;;;;16.02;12.98;;;;;;;;;;4993650;28;20041;-65
2022/06/14 00:43:05;;;;;;;14.15;12.93;;;;;;;;;;4993403;28;20077;-65
2022/06/14 00:45:31;;;;;;;17.40;13.25;;;;;;;;;;4993442;28;20026;-65
2022/06/14 00:47:57;;;;;;;15.90;14.23;;;;;;;;;;4992010;28;20402;-65
2022/06/14 00:50:25;;;;;;;15.23;13.73;;;;;;;;;;4991797;28;20029;-65
2022/06/14 00:52:57;;;;;;;15.68;13.25;;;;;;;;;;4991587;28;20039;-65
2022/06/14 00:55:27;;;;;;;15.98;14.48;;;;;;;;;;4992711;28;20030;-65
2022/06/14 00:57:55;;;;;;;15.38;13.88;;;;;;;;;;4992395;28;20030;-65
2022/06/14 01:00:25;;;;;;;15.18;13.77;;;;;;;;;;4993077;28;20053;-65
2022/06/14 01:02:53;;;;;;;17.30;15.27;;;;;;;;;;4993401;28;20376;-65
2022/06/14 01:05:22;;;;;;;17.52;14.75;;;;;;;;;;4992352;28;20491;-65
2022/06/14 01:07:50;;;;;;;15.93;14.25;;;;;;;;;;4993104;28;20084;-65
2022/06/14 01:10:18;;;;;;;16.48;14.95;;;;;;;;;;4993093;28;20030;-65
2022/06/14 01:12:46;;;;;;;17.27;15.30;;;;;;;;;;4993037;28;20641;-65
2022/06/14 01:15:18;;;;;;;17.15;15.35;;;;;;;;;;4993111;28;20181;-65
2022/06/14 01:17:54;;;;;;;21.70;15.65;;;;;;;;;;4993089;28;20026;-65
2022/06/14 01:20:22;;;;;;;16.63;15.13;;;;;;;;;;4992820;28;20023;-65
2022/06/14 01:22:49;;;;;;;16.58;14.77;;;;;;;;;;4992923;28;20034;-65
2022/06/14 01:25:15;;;;;;;17.92;14.60;;;;;;;;;;4992541;28;20113;-65
2022/06/14 01:27:42;;;;;;;16.92;15.32;;;;;;;;;;4992678;28;20039;-65
2022/06/14 01:30:15;;;;;;;15.55;14.15;;;;;;;;;;4992603;28;20022;-65
2022/06/14 01:32:52;;;;;;;15.20;13.68;;;;;;;;;;4992656;28;20108;-65
2022/06/14 01:35:21;;;;;;;17.02;13.63;;;;;;;;;;4992870;28;20033;-65
2022/06/14 01:37:48;;;;;;;15.98;14.45;;;;;;;;;;4992515;28;20030;-65
2022/06/14 01:40:14;;;;;;;15.35;13.82;;;;;;;;;;4992355;28;20037;-65
2022/06/14 01:42:46;;;;;;;18.42;12.93;;;;;;;;;;4992408;28;20061;-65
2022/06/14 01:45:35;;;;;;;14.48;13.10;;;;;;;;;;4992465;28;20042;-65
2022/06/14 01:48:07;;;;;;;17.10;13.50;;;;;;;;;;4992216;28;20030;-65
2022/06/14 01:53:21;;;;;;;15.32;12.85;;;;;;;;;;4991824;28;20475;-65
2022/06/14 01:55:47;;;;;;;12.50;11.40;;;;;;;;;;4992527;28;20114;-65
2022/06/14 01:58:23;;;;;;;13.20;11.77;;;;;;;;;;4991844;28;20070;-65
2022/06/14 02:00:56;;;;;;;21.15;12.40;;;;;;;;;;4991982;28;20030;-65
2022/06/14 02:06:30;;;;;;;15.82;14.15;;;;;;;;;;4992064;28;20555;-65
2022/06/14 02:09:22;;;;;;;14.15;12.63;;;;;;;;;;4971650;28;20401;-65
2022/06/14 02:11:48;;;;;;;15.43;13.32;;;;;;;;;;4989174;28;20428;-65
2022/06/14 02:14:14;;;;;;;15.80;13.00;;;;;;;;;;4990931;28;20027;-65
2022/06/14 02:16:44;;;;;;;16.87;12.13;;;;;;;;;;4991630;28;20049;-64
2022/06/14 02:19:13;;;;;;;20.13;13.57;;;;;;;;;;4991992;28;20348;-65
2022/06/14 02:21:43;;;;;;;14.05;12.55;;;;;;;;;;4992135;28;20058;-64
2022/06/14 02:24:11;;;;;;;18.27;13.30;;;;;;;;;;4992018;28;20038;-64
2022/06/14 02:26:49;;;;;;;15.77;13.48;;;;;;;;;;4990424;28;20118;-65
2022/06/14 02:29:15;;;;;;;15.55;13.30;;;;;;;;;;4991736;28;20030;-64
2022/06/14 02:31:43;;;;;;;18.70;13.87;;;;;;;;;;4990797;28;20030;-65
2022/06/14 02:34:12;;;;;;;17.02;14.15;;;;;;;;;;4989649;28;20265;-64
2022/06/14 02:36:41;;;;;;;16.38;13.80;;;;;;;;;;4991761;28;20037;-64
2022/06/14 02:39:10;;;;;;;15.55;14.05;;;;;;;;;;4991594;28;20018;-64
2022/06/14 02:41:46;;;;;;;17.52;14.10;;;;;;;;;;4992011;28;20034;-64
2022/06/14 02:44:31;;;;;;;15.45;13.80;;;;;;;;;;4991720;28;20027;-64
2022/06/14 02:47:23;;;;;;;16.65;14.43;;;;;;;;;;4991171;28;20510;-65
2022/06/14 02:49:55;;;;;;;16.73;13.65;;;;;;;;;;4991154;28;20034;-64
2022/06/14 02:52:24;;;;;;;15.05;13.55;;;;;;;;;;4990723;28;20034;-64
2022/06/14 02:54:56;;;;;;;15.55;13.73;;;;;;;;;;4991376;28;20035;-64
2022/06/14 02:57:45;;;;;;;14.45;13.05;;;;;;;;;;4972493;28;20031;-64
2022/06/14 03:00:17;;;;;;;14.27;12.88;;;;;;;;;;4974728;28;20483;-64
2022/06/14 03:02:47;;;;;;;16.27;13.23;;;;;;;;;;4991418;28;20030;-64
2022/06/14 03:05:25;;;;;;;14.63;12.52;;;;;;;;;;4991536;28;20034;-64
2022/06/14 03:07:56;;;;;;;14.48;12.90;;;;;;;;;;4991695;28;20023;-64
2022/06/14 03:10:23;;;;;;;13.70;12.05;;;;;;;;;;4991802;28;20050;-64
2022/06/14 03:13:09;;;;;;;13.98;12.63;;;;;;;;;;4991947;28;20033;-64
2022/06/14 03:15:35;;;;;;;14.13;12.82;;;;;;;;;;4990326;28;20050;-64
2022/06/14 03:18:23;;;;;;;15.93;12.27;;;;;;;;;;4991607;28;20031;-64
2022/06/14 03:20:55;;;;;;;13.15;11.95;;;;;;;;;;4990853;28;20029;-64
2022/06/14 03:23:21;;;;;;;15.60;11.60;;;;;;;;;;5001396;28;20042;-64
2022/06/14 03:25:55;;;;;;;17.90;11.57;;;;;;;;;;4991508;28;20046;-64
2022/06/14 03:28:24;;;;;;;12.15;11.00;;;;;;;;;;4991486;28;20026;-64
2022/06/14 03:31:11;;;;;;;12.05;10.80;;;;;;;;;;4994846;28;20102;-64
2022/06/14 03:33:40;;;;;;;13.48;11.30;;;;;;;;;;4994222;28;20112;-64
2022/06/14 03:36:08;;;;;;;13.77;11.07;;;;;;;;;;4995206;28;20030;-64
2022/06/14 03:38:34;;;;;;;11.52;10.20;;;;;;;;;;4994438;28;20022;-64
2022/06/14 03:41:00;;;;;;;13.17;10.50;;;;;;;;;;4993353;28;20018;-64
2022/06/14 03:43:26;;;;;;;14.13;11.48;;;;;;;;;;4994998;28;20018;-64
2022/06/14 03:45:57;;;;;;;12.25;11.00;;;;;;;;;;4994452;28;20031;-64
2022/06/14 03:48:23;;;;;;;16.40;11.60;;;;;;;;;;4987300;28;20023;-65
2022/06/14 03:50:49;;;;;;;15.15;11.07;;;;;;;;;;4994746;28;20026;-64
2022/06/14 03:53:22;;;;;;;11.45;10.45;;;;;;;;;;4994676;28;20110;-64
2022/06/14 03:55:48;;;;;;;18.10;11.65;;;;;;;;;;4993191;28;20034;-64
2022/06/14 03:58:21;;;;;;;13.95;12.63;;;;;;;;;;4994580;28;20390;-65
2022/06/14 04:00:52;;;;;;;14.20;12.20;;;;;;;;;;4993329;28;20027;-65
2022/06/14 04:03:34;;;;;;;13.30;12.02;;;;;;;;;;4994755;28;20027;-65
2022/06/14 04:06:03;;;;;;;16.25;13.63;;;;;;;;;;4993187;28;20033;-65
2022/06/14 04:08:29;;;;;;;15.60;14.20;;;;;;;;;;4994308;28;20023;-65
2022/06/14 04:11:15;;;;;;;16.10;14.27;;;;;;;;;;4994467;28;20038;-65
2022/06/14 04:13:45;;;;;;;17.25;15.52;;;;;;;;;;4994494;28;20041;-65
2022/06/14 04:16:30;;;;;;;16.63;15.05;;;;;;;;;;4994477;28;20487;-65
2022/06/14 04:19:14;;;;;;;22.40;15.85;;;;;;;;;;4994104;28;20030;-65
2022/06/14 04:21:55;;;;;;;17.15;15.50;;;;;;;;;;4994490;28;20034;-65
2022/06/14 04:24:27;;;;;;;23.95;17.10;;;;;;;;;;4994373;28;20034;-65
2022/06/14 04:27:11;;;;;;;18.67;15.45;;;;;;;;;;4994168;28;20510;-65
2022/06/14 04:29:46;;;;;;;17.48;15.88;;;;;;;;;;4992700;28;20034;-65
2022/06/14 04:32:31;;;;;;;19.70;15.88;;;;;;;;;;4994195;28;20023;-65
2022/06/14 04:35:06;;;;;;;23.33;16.55;;;;;;;;;;4994060;28;20033;-65
2022/06/14 04:37:35;;;;;;;21.67;16.27;;;;;;;;;;4992611;28;20025;-65
2022/06/14 04:40:05;;;;;;;18.45;16.52;;;;;;;;;;4993648;28;20441;-65
2022/06/14 04:42:31;;;;;;;23.10;17.65;;;;;;;;;;4993064;28;20057;-65
2022/06/14 04:45:00;;;;;;;22.50;18.50;;;;;;;;;;4992162;28;20022;-65
2022/06/14 04:47:45;;;;;;;19.33;16.75;;;;;;;;;;4992089;28;20728;-65
2022/06/14 04:50:11;;;;;;;18.35;16.42;;;;;;;;;;4993289;28;20026;-65
2022/06/14 04:52:39;;;;;;;19.73;17.77;;;;;;;;;;4992992;28;20491;-65
2022/06/14 04:55:08;;;;;;;20.08;18.00;;;;;;;;;;4993561;28;20430;-65
2022/06/14 04:57:48;;;;;;;23.85;18.27;;;;;;;;;;4992316;28;20023;-65
2022/06/14 05:00:17;;;;;;;20.30;16.88;;;;;;;;;;4993445;28;20030;-65
2022/06/14 05:02:46;;;;;;;20.52;16.83;;;;;;;;;;4992261;28;20070;-65
2022/06/14 05:05:23;;;;;;;18.75;16.75;;;;;;;;;;4993508;28;20391;-65
2022/06/14 05:07:55;;;;;;;18.60;15.68;;;;;;;;;;4993304;28;20022;-65
2022/06/14 05:10:27;;;;;;;19.98;16.92;;;;;;;;;;4992108;28;20483;-65
2022/06/14 05:13:01;;;;;;;16.38;14.57;;;;;;;;;;4992035;28;20117;-65
2022/06/14 05:15:27;;;;;;;20.15;16.40;;;;;;;;;;4993433;28;20037;-65
2022/06/14 05:17:59;;;;;;;18.37;16.43;;;;;;;;;;4993077;28;20084;-65
2022/06/14 05:20:36;;;;;;;22.42;14.82;;;;;;;;;;4992012;28;20023;-65
2022/06/14 05:23:02;;;;;;;16.90;14.93;;;;;;;;;;4991865;28;20030;-65
2022/06/14 05:25:34;;;;;;;17.50;15.03;;;;;;;;;;4993150;28;20022;-65
2022/06/14 05:28:06;;;;;;;19.08;14.50;;;;;;;;;;4992808;28;20061;-65
2022/06/14 05:30:38;;;;;;;17.17;15.30;;;;;;;;;;4993184;28;20065;-65
2022/06/14 05:33:23;;;;;;;20.13;16.05;;;;;;;;;;4993099;28;20038;-65
2022/06/14 05:35:58;;;;;;;19.55;15.05;;;;;;;;;;4993314;28;20041;-66
2022/06/14 05:38:33;;;;;;;18.38;16.08;;;;;;;;;;4992746;28;20022;-65
2022/06/14 05:41:03;;;;;;;19.02;16.35;;;;;;;;;;4991740;28;20041;-64
2022/06/14 05:43:56;;;;;;;18.05;16.15;;;;;;;;;;4992898;28;20030;-62
2022/06/14 05:46:25;;;;;;;17.73;15.52;;;;;;;;;;4983678;28;20399;-62
2022/06/14 05:48:58;;;;;;;20.60;15.45;;;;;;;;;;4991282;28;20105;-61
2022/06/14 05:51:27;;;;;;;16.45;14.70;;;;;;;;;;4992603;28;20118;-62
2022/06/14 05:53:59;;;;;;;21.48;16.10;;;;;;;;;;4992178;28;20026;-61
2022/06/14 05:56:31;;;;;;;18.33;15.38;;;;;;;;;;4991397;28;20036;-61
2022/06/14 05:59:16;;;;;;;16.13;14.50;;;;;;;;;;4992595;28;20030;-61
2022/06/14 06:01:48;;;;;;;18.88;14.65;;;;;;;;;;4992267;28;20030;-61
2022/06/14 06:04:19;;;;;;;17.88;14.45;;;;;;;;;;4991540;28;20104;-62
2022/06/14 06:06:46;;;;;;;19.50;13.80;;;;;;;;;;4992005;28;20478;-62
2022/06/14 06:09:20;;;;;;;23.15;15.02;;;;;;;;;;4992078;28;20101;-62
2022/06/14 06:11:53;;;;;;;39.85;14.10;;;;;;;;;;4992658;28;20026;-61
2022/06/14 06:14:22;;;;;;;15.93;12.70;;;;;;;;;;4992339;28;20101;-64
2022/06/14 06:19:26;;;;;;;17.23;12.50;;;;;;;;;;4992083;28;20035;-64
2022/06/14 06:21:57;;;;;;;18.58;13.90;;;;;;;;;;4991057;28;20026;-64
2022/06/14 06:24:29;;;;;;;16.30;13.68;;;;;;;;;;4991166;28;20066;-65
2022/06/14 06:27:02;;;;;;;17.02;13.10;;;;;;;;;;4992265;28;20399;-64
2022/06/14 06:29:34;;;;;;;17.35;12.10;;;;;;;;;;4999291;22;20046;-59
2022/06/14 06:32:01;;;;;;;17.20;13.27;;;26.30;59.40;;;;;;4970581;28;20472;-58
2022/06/14 06:34:27;;;;;;;14.52;11.95;;;25.90;62.00;;;;;;4972948;28;20105;-57
2022/06/14 06:36:59;;;;;;;16.17;11.67;;;25.90;62.00;;;;;;4972907;28;20107;-57
2022/06/14 06:39:24;;;;;;;17.60;10.55;;;26.00;61.80;;;;;;4972584;28;20042;-58
2022/06/14 06:41:56;;;;;;;12.67;9.40;;;26.00;61.10;;;;;;4970685;28;20395;-58
2022/06/14 06:44:48;;;;;;;14.40;8.80;;;26.10;61.10;;;;;;4972753;28;20038;-59
2022/06/14 06:47:27;;;;;;;8.80;7.10;;;26.10;60.90;;;;;;4972575;28;20030;-59
2022/06/14 06:50:17;;;;;;;7.88;3.17;;;26.20;58.40;;;;;;4972767;28;20065;-55
2022/06/14 06:53:06;;;;;;;7.97;2.53;;;26.20;57.20;;;;;;4972593;28;20026;-58
2022/06/14 06:55:36;;;;;;;9.80;3.53;;;26.30;56.70;;;;;;4969710;28;20062;-58
2022/06/14 06:58:08;;;;;;;4.95;3.70;;;26.30;57.20;;;;;;4972515;28;20030;-58
2022/06/14 07:00:37;;;;;;;7.85;4.25;;;26.40;57.80;;;;;;4972606;28;20027;-58
2022/06/14 07:03:21;;;;;;;7.40;2.42;;;26.40;57.70;;;;;;4971216;28;20035;-57
2022/06/14 07:05:50;;;;;;;6.97;3.13;;;26.50;56.30;;;;;;4975702;28;20019;-59
2022/06/14 07:08:24;;;;;;;5.70;2.58;;;26.60;56.20;;;;;;4974867;28;20034;-58
2022/06/14 07:10:52;;;;;;;4.65;2.63;;;26.60;55.50;;;;;;4976231;28;20027;-58
2022/06/14 07:13:27;;;;;;;7.90;3.00;;;26.70;55.80;;;;;;4976177;28;20468;-59
2022/06/14 07:15:59;;;;;;;5.28;2.55;;;26.80;55.60;;;;;;4975475;28;20042;-58
2022/06/14 07:18:42;;;;;;;5.90;2.92;;;26.90;55.40;;;;;;4973596;28;20030;-58
2022/06/14 07:21:36;;;;;;;5.20;2.80;;;26.90;55.20;;;;;;4975611;28;20029;-58
2022/06/14 07:24:11;;;;;;;7.78;2.60;;;26.90;55.20;;;;;;4975505;28;20424;-58
2022/06/14 07:26:53;;;;;;;16.83;15.02;;;26.90;55.80;;;;;;4975951;28;20030;-60
2022/06/14 07:29:35;;;;;;;7.32;4.50;;;27.00;55.50;;;;;;4974855;28;20050;-61
2022/06/14 07:32:17;;;;;;;10.02;2.95;;;27.00;55.30;;;;;;4973566;28;20026;-61
2022/06/14 07:34:44;;;;;;;7.28;2.72;;;27.00;55.30;;;;;;4975967;28;20027;-59
2022/06/14 07:37:36;;;;;;;5.95;3.15;;;27.00;55.60;;;;;;4975684;28;20031;-57
2022/06/14 07:40:16;;;;;;;12.35;3.75;;;27.10;55.70;;;;;;4975678;28;20420;-59
2022/06/14 07:42:45;;;;;;;6.20;3.08;;;;;;;;;;4975579;28;20031;-63
2022/06/14 07:45:17;;;;;;;6.10;2.83;;;;;;;;;;4975551;28;20480;-56
2022/06/14 07:47:50;;;;;;;8.55;2.13;;;;;;;;;;4975595;28;20101;-58
2022/06/14 07:50:22;;;;;;;4.88;2.45;;;;;;;;;;4974963;28;20054;-52
2022/06/14 07:53:00;;;;;;;5.15;2.00;;;;;;;;;;4975305;28;20019;-54
2022/06/14 07:55:32;;;;;;;5.75;2.45;;;;;;;;;;4975478;28;20078;-63
2022/06/14 07:58:00;;;;;;;4.13;1.70;;;;;;;;;;4975020;28;20027;-64
2022/06/14 08:03:44;;;;;;;6.18;2.03;;;;;;;;;;4975595;28;20038;-64
2022/06/14 08:06:16;;;;;;;9.23;2.80;;;;;;;;;;4978700;28;20644;-64
2022/06/14 08:08:43;;;;;;;9.18;2.40;;;;;;;;;;4974976;28;20057;-64
2022/06/14 08:11:21;;;;;;;3.22;1.95;;;;;;;;;;4973923;28;20034;-64
2022/06/14 08:14:07;;;;;;;7.32;1.90;;;;;;;;;;4975208;28;20056;-64
2022/06/14 08:16:33;;;;;;;9.23;2.30;;;;;;;;;;4974598;28;20072;-64
2022/06/14 08:19:14;;;;;;;11.70;2.20;;;;;;;;;;4974724;28;20030;-64
2022/06/14 08:21:43;;;;;;;9.35;2.75;;;;;;;;;;4975052;28;20030;-62
2022/06/14 08:24:10;;;;;;;3.22;2.10;;;;;;;;;;4974978;28;20030;-60
2022/06/14 08:26:39;;;;;;;4.68;2.30;;;;;;;;;;4974402;28;20113;-62
2022/06/14 08:29:05;;;;;;;4.90;2.40;;;;;;;;;;4974038;28;20110;-60
2022/06/14 08:31:32;;;;;;;2.95;2.20;;;;;;;;;;4974769;28;20034;-63
2022/06/14 08:34:05;;;;;;;6.13;1.88;;;;;;;;;;4974203;28;20019;-64
2022/06/14 08:36:37;;;;;;;8.10;2.67;;;;;;;;;;4974654;28;20418;-63
2022/06/14 08:39:07;;;;;;;8.10;1.90;;;;;;;;;;4974312;28;20038;-63
2022/06/14 08:41:52;;;;;;;8.38;2.53;;;;;;;;;;4974578;28;20033;-64
2022/06/14 08:44:22;;;;;;;6.53;3.17;;;;;;;;;;4974528;28;20055;-64
2022/06/14 08:46:51;;;;;;;6.57;1.95;;;;;;;;;;4974408;28;20493;-63
2022/06/14 08:49:35;;;;;;;7.30;2.63;;;;;;;;;;4974017;28;20030;-63
2022/06/14 08:52:01;;;;;;;5.82;2.53;;;;;;;;;;4974310;28;20027;-64
2022/06/14 08:54:42;;;;;;;16.73;2.92;;;;;;;;;;4974267;28;20391;-64
2022/06/14 08:57:08;;;;;;;4.32;2.63;;;;;;;;;;4974158;28;20595;-64
2022/06/14 08:59:47;;;;;;;9.68;1.95;;;;;;;;;;4973981;28;20070;-64
2022/06/14 09:02:27;;;;;;;4.85;1.80;;;;;;;;;;4974155;28;20149;-64
2022/06/14 09:04:58;;;;;;;9.80;2.55;;;;;;;;;;4974145;28;20026;-63
2022/06/14 09:07:25;;;;;;;5.40;2.05;;;;;;;;;;4973807;28;20039;-64
2022/06/14 09:09:59;;;;;;;6.57;2.38;;;;;;;;;;4973899;28;20046;-64
2022/06/14 09:12:34;;;;;;;2.95;1.85;;;;;;;;;;4973880;28;20026;-64
2022/06/14 09:15:03;;;;;;;8.00;2.35;;;;;;;;;;4973910;28;20019;-64
2022/06/14 09:17:32;;;;;;;7.60;2.22;;;;;;;;;;4974006;28;20486;-63
2022/06/14 09:20:17;;;;;;;8.23;2.47;;;;;;;;;;4973733;28;20027;-64
2022/06/14 09:22:49;;;;;;;5.55;2.42;;;;;;;;;;4973685;28;20550;-64
2022/06/14 09:25:29;;;;;;;6.85;2.70;;;;;;;;;;4973991;28;20023;-64
2022/06/14 09:28:21;;;;;;;7.40;2.30;;;;;;;;;;4973047;28;20395;-62
2022/06/14 09:30:53;;;;;;;10.15;3.70;;;;;;;;;;4973358;28;20038;-63
2022/06/14 09:33:19;;;;;;;10.80;3.65;;;;;;;;;;4973506;28;20391;-64
2022/06/14 09:35:57;;;;;;;6.80;2.97;;;;;;;;;;4973575;28;20035;-64
2022/06/14 09:38:43;;;;;;;12.52;3.05;;;;;;;;;;4973376;28;20400;-64
2022/06/14 09:41:13;;;;;;;6.45;2.97;;;;;;;;;;4974928;28;20126;-64
2022/06/14 09:43:58;;;;;;;11.63;2.50;;;;;;;;;;4972023;28;20030;-64
2022/06/14 09:46:42;;;;;;;8.93;2.47;;;;;;;;;;4970978;28;20202;-64
2022/06/14 09:49:27;;;;;;;8.55;2.65;;;;;;;;;;4954119;28;20097;-64
2022/06/14 09:51:56;;;;;;;7.63;2.97;;;;;;;;;;4954004;28;20023;-64
2022/06/14 09:54:22;;;;;;;8.18;2.90;;;;;;;;;;4954240;28;20030;-64
2022/06/14 09:56:48;;;;;;;;;;;;;;;;;;4954385;28;20031;-64
2022/06/14 09:59:35;;;;;;;6.35;2.60;;;;;;;;;;4953619;28;19911;-63
2022/06/14 10:02:01;;;;;;;2.40;2.10;;;;;;;;;;4954003;28;20102;-64
2022/06/14 10:04:30;;;;;;;4.75;2.28;;;;;;;;;;4952886;28;20392;-64
2022/06/14 10:07:12;;;;;;;6.72;2.42;;;;;;;;;;4953780;28;20027;-64
2022/06/14 10:09:44;;;;;;;8.30;3.45;;;;;;;;;;4953800;28;20628;-64
2022/06/14 10:12:37;;;;;;;7.30;2.90;;;;;;;;;;4953801;28;20027;-64
2022/06/14 10:15:13;;;;;;;4.28;2.10;;;;;;;;;;4952483;28;20037;-63
2022/06/14 10:17:45;;;;;;;3.55;1.80;;;;;;;;;;4953990;28;20032;-63
2022/06/14 10:20:13;;;;;;;5.65;1.95;;;;;;;;;;4972043;28;20085;-63
2022/06/14 10:22:45;;;;;;;6.20;3.38;;;;;;;;;;4972463;28;20031;-63
2022/06/14 10:25:15;;;;;;;3.65;1.80;;;;;;;;;;4972850;28;20034;-63
2022/06/14 10:28:12;;;;;;;4.85;2.30;;;;;;;;;;4972474;28;20058;-62
2022/06/14 10:30:40;;;;;;;7.05;3.08;;;;;;;;;;4970210;28;20042;-63
2022/06/14 10:33:17;;;;;;;6.35;3.03;;;;;;;;;;4971801;28;20201;-63
2022/06/14 10:35:43;;;;;;;6.60;2.15;;;;;;;;;;4972517;28;20023;-63
2022/06/14 10:38:28;;;;;;;6.65;2.90;;;;;;;;;;4973214;28;20030;-61
2022/06/14 10:41:05;;;;;;;7.05;2.22;;;;;;;;;;4976557;28;20528;-63
2022/06/14 10:43:38;;;;;;;6.57;2.60;;;;;;;;;;4976843;28;20081;-63
2022/06/14 10:46:44;;;;;;;8.18;2.78;;;;;;;;;;4976628;28;20278;-63
2022/06/14 10:49:19;;;;;;;5.53;2.33;;;;;;;;;;4970598;28;20518;-63
2022/06/14 10:51:57;;;;;;;4.70;2.60;;;;;;;;;;4972317;28;20034;-63
2022/06/14 10:54:30;;;;;;;4.68;2.60;;;;;;;;;;4959139;28;20507;-63
2022/06/14 10:57:18;;;;;;;4.75;2.65;;;;;;;;;;4968453;28;20110;-63
2022/06/14 10:59:59;;;;;;;4.90;2.63;;;;;;;;;;4975864;28;20487;-63
2022/06/14 11:02:44;;;;;;;5.55;2.33;;;;;;;;;;4968346;28;20031;-63
2022/06/14 11:05:18;;;;;;;6.72;2.30;;;;;;;;;;4973416;28;20119;-59
2022/06/14 11:08:03;;;;;;;187.70;166.68;;;;;;;;;;4968081;28;20253;-60
2022/06/14 11:10:47;;;;;;;9.27;2.95;;;;;;;;;;4973760;28;20034;-63
2022/06/14 11:13:13;;;;;;;6.38;2.55;;;;;;;;;;4985689;28;20472;-59
2022/06/14 11:16:06;;;;;;;5.47;2.13;;;;;;;;;;4976160;28;20031;-63
2022/06/14 11:18:45;;;;;;;3.85;2.53;;;;;;;;;;4983846;28;20368;-63
2022/06/14 11:21:18;;;;;;;3.90;2.40;;;;;;;;;;4976820;28;20066;-63
2022/06/14 11:23:56;;;;;;;6.22;2.50;;;;;;;;;;4975672;28;20031;-63
2022/06/14 11:26:22;;;;;;;5.38;2.45;;;;;;;;;;4974714;28;20039;-64
2022/06/14 11:28:51;;;;;;;6.82;2.95;;;;;;;;;;4975236;28;20033;-63
2022/06/14 11:31:29;;;;;;;4.03;2.28;;;;;;;;;;4975187;28;20030;-63
2022/06/14 11:33:59;;;;;;;4.75;2.97;;;;;;;;;;4976001;28;20019;-64
2022/06/14 11:36:33;;;;;;;2.53;2.08;;;;;;;;;;4975234;28;20085;-63
2022/06/14 11:39:03;;;;;;;7.30;2.53;;;;;;;;;;4973709;28;20026;-63
2022/06/14 11:41:34;;;;;;;5.97;2.90;;;;;;;;;;4974127;28;20388;-63
2022/06/14 11:44:00;;;;;;;11.75;2.33;;;;;;;;;;4975667;28;20022;-63
2022/06/14 11:46:34;;;;;;;7.22;2.72;;;;;;;;;;4975465;28;20085;-63
2022/06/14 11:49:09;;;;;;;4.10;2.65;;;;;;;;;;4974788;28;20488;-63
2022/06/14 11:51:35;;;;;;;6.28;2.90;;;;;;;;;;4975020;28;20035;-63
2022/06/14 11:54:10;;;;;;;5.07;3.50;;;;;;;;;;4975421;28;20476;-63
2022/06/14 11:56:39;;;;;;;6.03;3.03;;;;;;;;;;4975017;28;20081;-63
2022/06/14 11:59:24;;;;;;;5.78;2.10;;;;;;;;;;4974641;28;20102;-63
2022/06/14 12:02:09;;;;;;;4.65;2.40;;;;;;;;;;4975197;28;20441;-63
2022/06/14 12:04:49;;;;;;;2.97;2.10;;;;;;;;;;4975240;28;20117;-63
2022/06/14 12:07:37;;;;;;;5.18;2.10;;;;;;;;;;4974555;28;20046;-63
2022/06/14 12:10:09;;;;;;;2.50;2.00;;;;;;;;;;4975043;28;20074;-63
2022/06/14 12:12:54;;;;;;;10.48;2.30;;;;;;;;;;4974585;28;20030;-64
2022/06/14 12:15:30;;;;;;;5.80;2.42;;;;;;;;;;4974990;28;20377;-63
2022/06/14 12:18:00;;;;;;;3.67;2.03;;;;;;;;;;4974909;28;20027;-63
2022/06/14 12:20:26;;;;;;;2.83;2.03;;;;;;;;;;4974911;28;20022;-63
2022/06/14 12:22:56;;;;;;;6.60;2.05;;;;;;;;;;4973605;28;20647;-63
2022/06/14 12:28:41;;;;;;;8.70;2.70;;;;;;;;;;4972578;28;20046;-63
2022/06/14 12:31:10;;;;;;;3.75;1.77;;;;;;;;;;4983653;23;20392;-56
2022/06/14 12:33:40;;;;;;;6.25;2.03;;;;;;;;;;4973685;28;20372;-57
2022/06/14 12:36:24;;;;;;;5.50;2.10;;;;;;;;;;4971893;28;20039;-57
2022/06/14 12:38:53;;;;;;;5.88;2.20;;;;;;;;;;4954722;28;20031;-53
2022/06/14 12:41:38;;;;;;;3.80;1.90;;;;;;;;;;4973048;28;20045;-56
2022/06/14 12:44:06;;;;;;;3.33;1.90;;;;;;;;;;4974195;28;20033;-57
2022/06/14 12:46:36;;;;;;;4.10;1.85;;;;;;;;;;4973778;28;20112;-57
2022/06/14 12:49:13;;;;;;;5.07;2.47;;;;;;;;;;4974042;28;20023;-57
2022/06/14 12:51:47;;;;;;;6.82;2.28;;;;;;;;;;4974433;28;20082;-56
2022/06/14 12:54:19;;;;;;;6.30;4.72;;;;;;;;;;4971924;28;20069;-57
2022/06/14 12:56:54;;;;;;;6.47;3.05;;;;;;;;;;4971173;28;20097;-56
2022/06/14 12:59:37;;;;;;;4.88;2.00;;;;;;;;;;4973069;28;20082;-57
2022/06/14 13:02:22;;;;;;;4.55;1.80;;;;;;;;;;4971336;28;20041;-57
2022/06/14 13:05:23;;;;;;;6.03;1.90;;;;;;;;;;4971926;28;20073;-57
2022/06/14 13:08:08;;;;;;;5.47;2.20;;;;;;;;;;4969258;28;20530;-56
2022/06/14 13:10:40;;;;;;;6.93;2.28;;;;;;;;;;4973056;28;20050;-57
2022/06/14 13:13:39;;;;;;;5.72;2.30;;;;;;;;;;4974011;28;20026;-57
2022/06/14 13:16:13;;;;;;;10.27;2.70;;;;;;;;;;4965939;28;20047;-56
2022/06/14 13:18:53;;;;;;;5.72;1.95;;;;;;;;;;4973205;28;20109;-57
2022/06/14 13:21:38;;;;;;;10.80;2.20;;;;;;;;;;4971669;28;20026;-56
2022/06/14 13:24:07;;;;;;;2.75;1.90;;;;;;;;;;4972180;28;20042;-56
2022/06/14 13:26:55;;;;;;;3.75;1.85;;;;;;;;;;4972482;28;20038;-55
2022/06/14 13:29:39;;;;;;;6.00;1.90;;;;;;;;;;4972980;28;20023;-54
2022/06/14 13:32:29;;;;;;;5.78;1.75;;;;;;;;;;4954454;28;20443;-55
2022/06/14 13:35:14;;;;;;;4.28;1.80;;;;;;;;;;4972481;28;20065;-55
2022/06/14 13:37:59;;;;;;;4.05;2.20;;;;;;;;;;4972909;28;20082;-55
2022/06/14 13:40:31;;;;;;;4.88;2.15;;;;;;;;;;4963740;28;20034;-55
2022/06/14 13:43:05;;;;;;;2.67;1.48;;;;;;;;;;4971326;28;20405;-54
2022/06/14 13:45:31;;;;;;;8.45;2.60;;;;;;;;;;4972153;28;20035;-55
2022/06/14 13:48:00;;;;;;;7.30;1.77;;;;;;;;;;4958173;28;20031;-55
2022/06/14 13:50:29;;;;;;;2.55;1.70;;;;;;;;;;4968450;28;20027;-55
2022/06/14 13:53:05;;;;;;;8.02;1.95;;;;;;;;;;4970907;28;20031;-55
2022/06/14 13:55:35;;;;;;;8.05;2.05;;;;;;;;;;4968975;28;20500;-55
2022/06/14 13:58:21;;;;;;;5.88;2.00;;;;;;;;;;4968044;28;20038;-55
2022/06/14 14:00:47;;;;;;;4.45;1.92;;;;;;;;;;4960385;28;20066;-55
2022/06/14 14:03:20;;;;;;;4.65;1.60;;;;;;;;;;4973194;28;20055;-56
2022/06/14 14:05:52;;;;;;;4.32;2.00;;;;;;;;;;4973145;28;20093;-55
2022/06/14 14:08:30;;;;;;;6.35;1.85;;;;;;;;;;4973009;28;20495;-55
2022/06/14 14:11:07;;;;;;;4.93;1.85;;;;;;;;;;4970749;28;20038;-55
2022/06/14 14:13:39;;;;;;;3.33;1.60;;;;;;;;;;4969254;28;20077;-55
2022/06/14 14:16:31;;;;;;;2.83;1.50;;;;;;;;;;4971489;28;20035;-55
2022/06/14 14:18:57;;;;;;;4.50;1.80;;;;;;;;;;4972316;28;20117;-55
2022/06/14 14:21:25;;;;;;;3.67;1.50;;;;;;;;;;4973000;28;20035;-55
2022/06/14 14:24:10;;;;;;;5.85;2.08;;;;;;;;;;4971436;28;20174;-54
2022/06/14 14:26:47;;;;;;;7.32;1.67;;;;;;;;;;4972545;28;20030;-55
2022/06/14 14:29:29;;;;;;;2.25;1.45;;;;;;;;;;4972499;28;20042;-55
2022/06/14 14:32:14;;;;;;;2.92;1.67;;;;;;;;;;4972894;28;20449;-55
2022/06/14 14:34:55;;;;;;;7.18;1.70;;;;;;;;;;4973031;28;20019;-55
2022/06/14 14:37:24;;;;;;;4.50;1.83;;;;;;;;;;4972826;28;20577;-55
2022/06/14 14:39:53;;;;;;;4.53;1.73;;;;;;;;;;4972713;28;20030;-55
2022/06/14 14:42:21;;;;;;;4.93;1.48;;;;;;;;;;4972515;28;20434;-55
2022/06/14 14:44:51;;;;;;;9.23;1.80;;;;;;;;;;4971194;28;20495;-55
2022/06/14 14:47:24;;;;;;;7.22;1.40;;;;;;;;;;4972492;28;20035;-54
2022/06/14 14:50:06;;;;;;;1.83;1.30;;;;;;;;;;4972789;28;20027;-55
2022/06/14 14:52:39;;;;;;;9.48;1.90;;;;;;;;;;4972801;28;20023;-56
2022/06/14 14:55:05;;;;;;;2.90;1.50;;;;;;;;;;4972504;28;20122;-51
2022/06/14 14:57:36;;;;;;;4.07;1.45;;;;;;;;;;4972673;28;20051;-54
2022/06/14 15:05:20;;;;;;;6.65;1.70;;;;;;;;;;4972807;28;20445;-54
2022/06/14 15:06:05;;;;;;;4.80;1.50;;;;;;;;;;4972524;28;20550;-55
2022/06/14 15:08:33;;;;;;;4.25;1.90;;;;;;;;;;4972632;28;20102;-55
2022/06/14 15:11:08;;;;;;;3.28;1.73;;;;;;;;;;4972786;28;20027;-53
2022/06/14 15:13:42;;;;;;;5.57;1.98;;;;;;;;;;4972679;28;20054;-55
2022/06/14 15:21:52;;;;;;;13.98;2.08;;;;;;;;;;4972958;28;20062;-56
2022/06/14 15:24:24;;;;;;;252.82;24.80;;;;;;;;;;4972855;28;20424;-56